ULQ weather

Heriberto Gíl Martínez Airport
Tuluá, Valle del Cauca Department, Colombia

Public forecast

Using degrees Celsius for public forecast. Weather courtesy of forecast.io.

METAR (pilot weather report)

Closest report is Alfonso Bonilla Aragon International Airport, 33.9 nm (62.8 km) SSW. Retrieved 2019/04/18 17:00 UTC (57 minutes ago):

SKCL 181700Z 11005KT 9000 FEW017 BKN120 27/20 A2998

TAF (pilot weather forecast)

Closest forecast is Alfonso Bonilla Aragon International Airport, 33.9 nm (62.8 km) SSW. Retrieved 2019/04/18 12:35 UTC (5 hours ago):

TAF SKCL 181100Z 1812/1912 02004KT 9999 SCT020 SCT090 TEMPO 1812/1814 6000 DZ VCFG SCT020TCU TEMPO 1818/1821 31008KT 8000 RA SCT020TCU BKN090 TX29/1819Z TN19/1911Z